createdAt,value
2022-09-15T00:00:43.594Z,82.20
2022-09-15T00:03:10.183Z,95.17
2022-09-15T00:05:37.079Z,82.50
2022-09-15T00:08:03.658Z,74.10
2022-09-15T00:10:30.392Z,90.07
2022-09-15T00:12:57.143Z,93.00
2022-09-15T00:15:23.792Z,65.97
2022-09-15T00:17:51.486Z,71.03
2022-09-15T00:20:19.282Z,98.77
2022-09-15T00:22:46.255Z,88.67
2022-09-15T00:25:13.391Z,86.93
2022-09-15T00:27:40.040Z,94.20
2022-09-15T00:30:07.565Z,91.60
2022-09-15T00:32:34.196Z,103.10
2022-09-15T00:35:00.696Z,115.67
2022-09-15T00:37:27.248Z,113.70
2022-09-15T00:39:53.815Z,117.67
2022-09-15T00:42:21.332Z,118.50
2022-09-15T00:44:53.019Z,118.53
2022-09-15T00:47:21.062Z,130.57
2022-09-15T00:49:49.194Z,153.10
2022-09-15T00:52:20.096Z,139.63
2022-09-15T00:54:46.736Z,131.73
2022-09-15T00:57:16.739Z,155.97
2022-09-15T00:59:44.341Z,139.20
2022-09-15T01:02:17.139Z,246.90
2022-09-15T01:04:43.835Z,160.20
2022-09-15T01:07:12.136Z,169.00
2022-09-15T01:09:41.634Z,171.37
2022-09-15T01:12:08.199Z,195.27
2022-09-15T01:14:34.743Z,162.50
2022-09-15T01:17:20.570Z,220.87
2022-09-15T01:20:06.146Z,205.07
2022-09-15T01:22:39.102Z,271.77
2022-09-15T01:25:26.382Z,240.20
2022-09-15T01:28:02.078Z,204.77
2022-09-15T01:30:31.705Z,287.93
2022-09-15T01:33:04.368Z,263.50
2022-09-15T01:35:40.125Z,201.67
2022-09-15T01:38:14.554Z,274.47
2022-09-15T01:40:44.865Z,209.60
2022-09-15T01:43:11.453Z,207.10
2022-09-15T01:45:41.237Z,232.53
2022-09-15T01:48:08.740Z,226.17
2022-09-15T01:50:38.857Z,248.37
2022-09-15T01:53:08.866Z,303.93
2022-09-15T01:55:38.807Z,284.70
2022-09-15T01:58:05.446Z,288.73
2022-09-15T02:00:33.496Z,304.67
2022-09-15T02:03:04.128Z,362.13
2022-09-15T02:05:42.209Z,354.60
2022-09-15T02:08:15.611Z,346.77
2022-09-15T02:10:44.650Z,333.03
2022-09-15T02:13:16.947Z,315.50
2022-09-15T02:15:50.475Z,331.07
2022-09-15T02:18:25.772Z,319.87
2022-09-15T02:20:58.474Z,300.70
2022-09-15T02:23:32.829Z,276.40
2022-09-15T02:26:04.969Z,285.60
2022-09-15T02:28:33.129Z,315.43
2022-09-15T02:31:01.187Z,314.53
2022-09-15T02:33:29.887Z,341.10
2022-09-15T02:35:56.487Z,307.67
2022-09-15T02:38:23.673Z,313.87
2022-09-15T02:40:50.675Z,285.83
2022-09-15T02:43:17.809Z,297.47
2022-09-15T02:45:44.460Z,272.90
2022-09-15T02:48:12.134Z,292.07
2022-09-15T02:50:38.973Z,241.73
2022-09-15T02:53:05.619Z,283.20
2022-09-15T02:55:32.196Z,246.90
2022-09-15T02:57:58.801Z,259.87
2022-09-15T03:00:25.939Z,259.63
2022-09-15T03:02:53.560Z,270.03
2022-09-15T03:05:30.334Z,255.17
2022-09-15T03:07:57.166Z,248.50
2022-09-15T03:10:24.387Z,274.93
2022-09-15T03:12:52.585Z,262.03
2022-09-15T03:15:22.621Z,238.63
2022-09-15T03:17:49.514Z,235.87
2022-09-15T03:20:17.459Z,223.17
2022-09-15T03:22:44.067Z,264.80
2022-09-15T03:25:11.210Z,222.77
2022-09-15T03:27:37.881Z,227.67
2022-09-15T03:30:05.167Z,218.53
2022-09-15T03:32:31.704Z,241.23
2022-09-15T03:34:58.772Z,215.17
2022-09-15T03:37:25.636Z,237.20
2022-09-15T03:39:52.162Z,230.37
2022-09-15T03:42:19.600Z,226.67
2022-09-15T03:44:46.152Z,237.90
2022-09-15T03:47:12.628Z,236.90
2022-09-15T03:49:39.127Z,241.27
2022-09-15T03:52:05.641Z,269.07
2022-09-15T03:54:32.177Z,271.30
2022-09-15T03:56:58.872Z,231.73
2022-09-15T03:59:25.440Z,233.73
2022-09-15T04:01:52.051Z,235.60
2022-09-15T04:04:18.624Z,215.73
2022-09-15T04:06:45.316Z,271.50
2022-09-15T04:09:12.155Z,222.83
2022-09-15T04:11:39.477Z,247.77
2022-09-15T04:14:06.177Z,217.00
2022-09-15T04:16:32.838Z,194.97
2022-09-15T04:18:59.844Z,172.77
2022-09-15T04:21:26.714Z,180.57
2022-09-15T04:23:53.311Z,178.13
2022-09-15T04:26:27.953Z,169.43
2022-09-15T04:28:54.527Z,184.07
2022-09-15T04:31:21.117Z,150.70
2022-09-15T04:33:47.759Z,146.17
2022-09-15T04:36:15.541Z,154.93
2022-09-15T04:38:42.593Z,159.80
2022-09-15T04:41:09.813Z,133.67
2022-09-15T04:43:36.422Z,147.87
2022-09-15T04:46:03.065Z,122.80
2022-09-15T04:48:30.429Z,133.00
2022-09-15T04:51:06.947Z,139.07
2022-09-15T04:53:33.764Z,147.13
2022-09-15T04:56:03.418Z,122.83
2022-09-15T04:58:30.105Z,128.13
2022-09-15T05:00:56.607Z,130.47
2022-09-15T05:03:23.197Z,126.70
2022-09-15T05:05:49.722Z,135.87
2022-09-15T05:08:16.550Z,134.90
2022-09-15T05:10:43.089Z,131.63
2022-09-15T05:13:09.656Z,123.33
2022-09-15T05:15:36.165Z,118.53
2022-09-15T05:18:02.837Z,130.60
2022-09-15T05:20:29.796Z,142.67
2022-09-15T05:22:56.371Z,118.50
2022-09-15T05:25:23.009Z,124.53
2022-09-15T05:27:49.635Z,135.40
2022-09-15T05:30:36.876Z,148.37
2022-09-15T05:33:02.903Z,115.07
2022-09-15T05:35:29.458Z,143.97
2022-09-15T05:37:56.010Z,137.33
2022-09-15T05:40:22.723Z,139.67
2022-09-15T05:42:49.299Z,153.03
2022-09-15T05:45:15.984Z,149.93
2022-09-15T05:47:42.492Z,141.57
2022-09-15T05:50:09.307Z,136.07
2022-09-15T05:52:35.922Z,122.73
2022-09-15T05:55:02.511Z,138.27
2022-09-15T05:57:29.855Z,130.53
2022-09-15T05:59:56.433Z,115.37
2022-09-15T06:02:23.105Z,109.07
2022-09-15T06:04:49.732Z,139.37
2022-09-15T06:07:16.575Z,134.67
2022-09-15T06:09:43.402Z,114.50
2022-09-15T06:12:10.063Z,119.43
2022-09-15T06:14:36.630Z,117.60
2022-09-15T06:17:03.174Z,113.57
2022-09-15T06:19:29.665Z,107.50
2022-09-15T06:21:56.374Z,113.17
2022-09-15T06:24:22.964Z,103.03
2022-09-15T06:26:49.604Z,100.63
2022-09-15T06:29:16.166Z,118.30
2022-09-15T06:31:42.772Z,110.37
2022-09-15T06:34:11.204Z,100.93
2022-09-15T06:36:38.954Z,133.90
2022-09-15T06:39:05.616Z,122.47
2022-09-15T06:41:52.516Z,108.93
2022-09-15T06:44:19.421Z,99.63
2022-09-15T06:46:46.361Z,113.10
2022-09-15T06:49:12.926Z,87.60
2022-09-15T06:51:39.733Z,108.53
2022-09-15T06:54:06.336Z,93.97
2022-09-15T06:56:37.613Z,92.40
2022-09-15T06:59:04.541Z,92.30
2022-09-15T07:01:32.047Z,97.73
2022-09-15T07:03:59.801Z,105.47
2022-09-15T07:06:30.291Z,95.43
2022-09-15T07:08:58.455Z,85.80
2022-09-15T07:11:25.477Z,88.53
2022-09-15T07:13:52.245Z,81.23
2022-09-15T07:16:19.387Z,81.83
2022-09-15T07:18:46.613Z,78.63
2022-09-15T07:21:14.726Z,96.83
2022-09-15T07:23:41.705Z,86.53
2022-09-15T07:26:12.594Z,91.67
2022-09-15T07:28:39.961Z,78.83
2022-09-15T07:31:07.216Z,81.33
2022-09-15T07:33:34.289Z,84.73
2022-09-15T07:36:02.465Z,75.23
2022-09-15T07:38:29.098Z,72.50
2022-09-15T07:41:01.921Z,83.67
2022-09-15T07:43:28.416Z,81.33
2022-09-15T07:45:57.064Z,75.50
2022-09-15T07:48:26.436Z,72.60
2022-09-15T07:50:53.367Z,71.80
2022-09-15T07:53:20.029Z,72.13
2022-09-15T07:55:51.414Z,68.00
2022-09-15T07:58:19.070Z,70.17
2022-09-15T08:00:47.450Z,65.57
2022-09-15T08:03:14.529Z,62.80
2022-09-15T08:05:45.277Z,70.10
2022-09-15T08:08:12.293Z,63.03
2022-09-15T08:10:42.582Z,53.13
2022-09-15T08:13:09.146Z,52.07
2022-09-15T08:15:38.805Z,56.90
2022-09-15T08:18:06.083Z,57.50
2022-09-15T08:20:33.220Z,52.93
2022-09-15T08:22:59.846Z,71.10
2022-09-15T08:25:26.519Z,55.10
2022-09-15T08:27:54.169Z,63.97
2022-09-15T08:30:21.288Z,61.10
2022-09-15T08:32:48.237Z,65.37
2022-09-15T08:35:16.017Z,59.77
2022-09-15T08:37:42.690Z,61.67
2022-09-15T08:40:35.690Z,49.93
2022-09-15T08:43:06.257Z,50.17
2022-09-15T08:45:37.599Z,44.93
2022-09-15T08:48:04.874Z,53.73
2022-09-15T08:50:42.566Z,53.20
2022-09-15T08:53:14.124Z,38.23
2022-09-15T08:55:46.683Z,32.83
2022-09-15T08:58:34.274Z,39.63
2022-09-15T09:01:04.760Z,33.57
2022-09-15T09:03:43.657Z,37.07
2022-09-15T09:06:29.050Z,29.67
2022-09-15T09:09:04.838Z,27.80
2022-09-15T09:11:31.391Z,27.60
2022-09-15T09:14:13.518Z,31.20
2022-09-15T09:16:52.495Z,27.70
2022-09-15T09:19:38.139Z,30.80
2022-09-15T09:22:13.797Z,30.20
2022-09-15T09:24:43.045Z,28.83
2022-09-15T09:27:18.277Z,26.17
2022-09-15T09:29:49.529Z,32.00
2022-09-15T09:32:21.636Z,22.00
2022-09-15T09:34:54.639Z,26.27
2022-09-15T09:37:21.216Z,32.43
2022-09-15T09:39:48.882Z,24.77
2022-09-15T09:42:18.294Z,20.53
2022-09-15T09:44:45.860Z,27.50
2022-09-15T09:47:13.255Z,27.47
2022-09-15T09:49:47.619Z,20.50
2022-09-15T09:52:20.032Z,23.10
2022-09-15T09:54:59.477Z,24.43
2022-09-15T09:57:29.216Z,18.80
2022-09-15T09:59:55.874Z,18.53
2022-09-15T10:02:24.671Z,20.60
2022-09-15T10:05:05.601Z,16.40
2022-09-15T10:07:32.814Z,18.63
2022-09-15T10:10:01.625Z,19.00
2022-09-15T10:12:28.158Z,24.93
2022-09-15T10:14:55.939Z,25.03
2022-09-15T10:17:45.806Z,18.30
2022-09-15T10:20:24.681Z,17.50
2022-09-15T10:22:51.624Z,13.73
2022-09-15T10:25:21.221Z,11.70
2022-09-15T10:28:03.244Z,17.43
2022-09-15T10:30:29.866Z,13.47
2022-09-15T10:32:57.955Z,11.60
2022-09-15T10:35:24.664Z,17.77
2022-09-15T10:37:57.316Z,16.27
2022-09-15T10:40:23.917Z,13.47
2022-09-15T10:42:51.848Z,16.70
2022-09-15T10:45:30.710Z,12.83
2022-09-15T10:48:23.830Z,9.60
2022-09-15T10:51:02.628Z,11.17
2022-09-15T10:53:35.501Z,10.20
2022-09-15T10:56:21.500Z,5.77
2022-09-15T10:59:06.868Z,7.77
2022-09-15T11:01:48.284Z,5.40
2022-09-15T11:04:17.819Z,8.27
2022-09-15T11:06:56.452Z,7.00
2022-09-15T11:09:26.071Z,9.20
2022-09-15T11:12:08.018Z,11.83
2022-09-15T11:14:37.667Z,5.57
2022-09-15T11:17:07.318Z,10.20
2022-09-15T11:20:03.716Z,9.47
2022-09-15T11:22:35.486Z,8.10
2022-09-15T11:25:22.168Z,8.77
2022-09-15T11:27:55.760Z,4.47
2022-09-15T11:30:26.834Z,22.47
2022-09-15T11:33:15.211Z,6.13
2022-09-15T11:35:46.719Z,9.40
2022-09-15T11:38:13.286Z,4.47
2022-09-15T11:40:44.811Z,8.70
2022-09-15T11:43:17.661Z,6.70
2022-09-15T11:45:46.835Z,6.03
2022-09-15T11:48:16.019Z,10.03
2022-09-15T11:50:45.198Z,7.43
2022-09-15T11:53:16.749Z,10.93
2022-09-15T11:55:53.108Z,5.50
2022-09-15T11:58:33.989Z,6.97
2022-09-15T12:01:08.832Z,5.07
2022-09-15T12:03:54.218Z,6.53
2022-09-15T12:06:27.033Z,5.93
2022-09-15T12:08:56.788Z,4.93
2022-09-15T12:11:26.077Z,6.50
2022-09-15T12:13:53.759Z,8.17
2022-09-15T12:16:21.353Z,9.87
2022-09-15T12:18:53.571Z,4.47
2022-09-15T12:21:39.334Z,3.93
2022-09-15T12:24:24.794Z,11.10
2022-09-15T12:26:51.660Z,4.47
2022-09-15T12:29:21.354Z,13.33
2022-09-15T12:31:47.999Z,5.70
2022-09-15T12:34:35.237Z,7.13
2022-09-15T12:37:14.935Z,7.07
2022-09-15T12:39:42.322Z,8.53
2022-09-15T12:42:23.261Z,9.53
2022-09-15T12:45:04.356Z,6.37
2022-09-15T12:47:31.851Z,4.27
2022-09-15T12:50:01.715Z,8.13
2022-09-15T12:52:28.733Z,7.90
2022-09-15T12:54:57.277Z,9.47
2022-09-15T12:57:26.760Z,5.33
2022-09-15T13:00:12.215Z,6.47
2022-09-15T13:02:43.862Z,3.70
2022-09-15T13:05:11.789Z,5.10
2022-09-15T13:07:55.534Z,5.13
2022-09-15T13:10:35.948Z,5.43
2022-09-15T13:13:16.150Z,3.00
2022-09-15T13:15:44.359Z,5.80
2022-09-15T13:18:12.405Z,6.00
2022-09-15T13:20:41.220Z,9.97
2022-09-15T13:23:09.308Z,10.60
2022-09-15T13:25:36.305Z,4.63
2022-09-15T13:28:03.728Z,7.87
2022-09-15T13:30:36.392Z,4.67
2022-09-15T13:33:15.850Z,3.60
2022-09-15T13:35:42.539Z,5.10
2022-09-15T13:38:31.595Z,6.30
2022-09-15T13:41:18.096Z,14.00
2022-09-15T13:44:04.619Z,13.00
2022-09-15T13:46:50.111Z,6.90
2022-09-15T13:49:27.865Z,9.20
2022-09-15T13:52:01.026Z,17.57
2022-09-15T13:54:28.171Z,14.00
2022-09-15T13:56:59.182Z,15.33
2022-09-15T13:59:30.271Z,25.43
2022-09-15T14:01:58.541Z,14.97
2022-09-15T14:04:28.419Z,8.67
2022-09-15T14:07:00.053Z,14.20
2022-09-15T14:09:29.047Z,9.73
2022-09-15T14:11:59.007Z,8.20
2022-09-15T14:14:40.935Z,19.70
2022-09-15T14:17:36.929Z,7.00
2022-09-15T14:20:07.548Z,14.60
2022-09-15T14:22:34.383Z,7.60
2022-09-15T14:25:16.549Z,10.40
2022-09-15T14:27:44.493Z,6.73
2022-09-15T14:30:19.676Z,12.67
2022-09-15T14:32:47.113Z,7.27
2022-09-15T14:35:19.683Z,6.70
2022-09-15T14:37:50.861Z,9.13
2022-09-15T14:40:20.009Z,5.73
2022-09-15T14:42:46.772Z,9.20
2022-09-15T14:48:07.174Z,7.00
2022-09-15T14:50:34.020Z,8.93
2022-09-15T14:53:05.169Z,6.00
2022-09-15T14:55:46.979Z,7.07
2022-09-15T14:58:21.296Z,4.60
2022-09-15T15:01:02.381Z,5.37
2022-09-15T15:03:41.355Z,6.60
2022-09-15T15:06:34.059Z,8.97
2022-09-15T15:09:03.365Z,2.30
2022-09-15T15:11:31.729Z,7.37
2022-09-15T15:13:58.481Z,6.20
2022-09-15T15:16:26.609Z,10.60
2022-09-15T15:18:53.709Z,3.23
2022-09-15T15:21:29.680Z,7.80
2022-09-15T15:23:56.528Z,7.10
2022-09-15T15:26:25.046Z,7.60
2022-09-15T15:28:53.003Z,2.40
2022-09-15T15:31:25.061Z,6.47
2022-09-15T15:33:53.277Z,5.13
2022-09-15T15:36:21.758Z,7.00
2022-09-15T15:38:56.542Z,9.20
2022-09-15T15:41:27.626Z,4.27
2022-09-15T15:43:55.298Z,5.83
2022-09-15T15:46:41.028Z,5.07
2022-09-15T15:49:11.028Z,4.70
2022-09-15T15:51:37.721Z,1.90
2022-09-15T15:54:05.895Z,5.40
2022-09-15T15:56:37.139Z,4.03
2022-09-15T15:59:04.891Z,3.63
2022-09-15T16:01:31.950Z,5.53
2022-09-15T16:03:58.567Z,3.10
2022-09-15T16:06:25.242Z,2.80
2022-09-15T16:08:52.640Z,7.17
2022-09-15T16:11:20.953Z,4.50
2022-09-15T16:13:48.387Z,5.03
2022-09-15T16:16:16.630Z,3.80
2022-09-15T16:18:43.519Z,4.33
2022-09-15T16:21:20.549Z,6.23
2022-09-15T16:23:48.169Z,7.30
2022-09-15T16:26:16.758Z,8.40
2022-09-15T16:28:43.384Z,7.87
2022-09-15T16:31:12.312Z,9.53
2022-09-15T16:33:39.369Z,6.40
2022-09-15T16:36:09.127Z,8.23
2022-09-15T16:38:36.121Z,6.23
2022-09-15T16:41:03.577Z,8.73
2022-09-15T16:43:30.707Z,6.50
2022-09-15T16:45:57.460Z,8.33
2022-09-15T16:48:24.337Z,7.40
2022-09-15T16:53:39.520Z,7.50
2022-09-15T16:56:07.088Z,5.60
2022-09-15T16:58:33.979Z,4.57
2022-09-15T17:01:00.816Z,9.90
2022-09-15T17:03:27.895Z,5.70
2022-09-15T17:05:55.662Z,6.20
2022-09-15T17:08:23.533Z,7.30
2022-09-15T17:10:50.625Z,10.20
2022-09-15T17:13:18.764Z,7.73
2022-09-15T17:15:45.902Z,5.37
2022-09-15T17:18:16.544Z,5.70
2022-09-15T17:20:44.263Z,4.67
2022-09-15T17:23:23.464Z,7.23
2022-09-15T17:25:52.792Z,7.07
2022-09-15T17:28:21.199Z,12.90
2022-09-15T17:30:48.953Z,12.03
2022-09-15T17:33:16.146Z,7.70
2022-09-15T17:35:43.201Z,10.23
2022-09-15T17:38:12.196Z,12.30
2022-09-15T17:40:39.181Z,10.80
2022-09-15T17:43:06.931Z,5.13
2022-09-15T17:45:35.434Z,3.73
2022-09-15T17:48:04.613Z,5.07
2022-09-15T17:50:33.194Z,10.47
2022-09-15T17:53:00.128Z,2.63
2022-09-15T17:55:31.550Z,5.47
2022-09-15T17:57:59.394Z,16.97
2022-09-15T18:00:27.127Z,7.73
2022-09-15T18:02:58.325Z,10.47
2022-09-15T18:05:27.093Z,7.10
2022-09-15T18:07:54.671Z,11.37
2022-09-15T18:10:22.564Z,9.10
2022-09-15T18:12:53.589Z,5.80
2022-09-15T18:15:23.849Z,5.77
2022-09-15T18:17:51.451Z,4.37
2022-09-15T18:20:21.783Z,5.17
2022-09-15T18:22:49.173Z,7.50
2022-09-15T18:25:19.197Z,6.00
2022-09-15T18:27:46.807Z,4.20
2022-09-15T18:30:13.958Z,6.03
2022-09-15T18:32:40.946Z,4.33
2022-09-15T18:35:09.324Z,5.00
2022-09-15T18:37:37.230Z,5.43
2022-09-15T18:40:07.149Z,2.60
2022-09-15T18:42:33.960Z,4.63
2022-09-15T18:45:01.077Z,10.50
2022-09-15T18:47:28.861Z,6.77
2022-09-15T18:49:55.813Z,7.90
2022-09-15T18:52:22.664Z,4.40
2022-09-15T18:54:49.457Z,1.97
2022-09-15T18:57:16.139Z,6.93
2022-09-15T18:59:42.746Z,3.07
2022-09-15T19:02:11.832Z,5.20
2022-09-15T19:04:40.720Z,3.97
2022-09-15T19:07:08.293Z,9.63
2022-09-15T19:09:35.563Z,4.70
2022-09-15T19:12:03.269Z,18.07
2022-09-15T19:14:30.599Z,7.40
2022-09-15T19:16:58.458Z,5.73
2022-09-15T19:19:25.410Z,24.13
2022-09-15T19:21:52.195Z,8.13
2022-09-15T19:24:20.008Z,5.93
2022-09-15T19:26:47.256Z,8.20
2022-09-15T19:29:14.107Z,4.40
2022-09-15T19:31:42.074Z,8.53
2022-09-15T19:34:09.443Z,15.57
2022-09-15T19:36:36.438Z,11.70
2022-09-15T19:39:03.724Z,6.40
2022-09-15T19:41:30.575Z,8.83
2022-09-15T19:43:57.560Z,8.70
2022-09-15T19:46:24.958Z,6.03
2022-09-15T19:48:52.047Z,2.40
2022-09-15T19:51:19.439Z,12.00
2022-09-15T19:53:47.572Z,6.00
2022-09-15T19:56:15.127Z,15.40
2022-09-15T19:58:41.906Z,4.37
2022-09-15T20:01:15.902Z,5.50
2022-09-15T20:03:43.852Z,12.47
2022-09-15T20:06:10.687Z,4.03
2022-09-15T20:08:38.214Z,12.07
2022-09-15T20:11:06.066Z,9.37
2022-09-15T20:13:32.890Z,9.20
2022-09-15T20:16:00.970Z,6.20
2022-09-15T20:18:28.358Z,6.20
2022-09-15T20:20:56.994Z,11.00
2022-09-15T20:23:23.645Z,10.87
2022-09-15T20:25:57.225Z,5.87
2022-09-15T20:28:24.373Z,12.73
2022-09-15T20:31:00.191Z,8.63
2022-09-15T20:33:26.953Z,3.10
2022-09-15T20:35:53.807Z,11.47
2022-09-15T20:38:20.778Z,7.57
2022-09-15T20:40:47.356Z,11.17
2022-09-15T20:43:13.943Z,12.50
2022-09-15T20:45:40.478Z,9.50
2022-09-15T20:48:07.707Z,8.47
2022-09-15T20:50:34.982Z,19.90
2022-09-15T20:53:01.609Z,8.83
2022-09-15T20:55:28.590Z,6.33
2022-09-15T20:57:55.161Z,5.40
2022-09-15T21:00:21.706Z,11.23
2022-09-15T21:02:50.983Z,15.20
2022-09-15T21:05:17.575Z,6.93
2022-09-15T21:07:44.169Z,21.27
2022-09-15T21:10:10.759Z,7.53
2022-09-15T21:12:37.314Z,9.03
2022-09-15T21:15:04.133Z,15.03
2022-09-15T21:17:30.654Z,8.20
2022-09-15T21:19:57.193Z,6.90
2022-09-15T21:22:23.748Z,9.63
2022-09-15T21:24:50.301Z,11.97
2022-09-15T21:27:30.028Z,5.80
2022-09-15T21:29:56.865Z,8.60
2022-09-15T21:32:24.453Z,6.20
2022-09-15T21:34:51.189Z,7.70
2022-09-15T21:37:18.969Z,11.37
2022-09-15T21:39:45.457Z,6.50
2022-09-15T21:42:13.029Z,13.73
2022-09-15T21:44:39.601Z,8.10
2022-09-15T21:47:06.163Z,5.57
2022-09-15T21:49:33.315Z,6.03
2022-09-15T21:51:59.909Z,6.67
2022-09-15T21:54:26.435Z,8.80
2022-09-15T21:56:53.046Z,10.47
2022-09-15T21:59:19.604Z,9.03
2022-09-15T22:01:46.200Z,12.87
2022-09-15T22:04:12.782Z,14.43
2022-09-15T22:06:40.661Z,7.10
2022-09-15T22:09:13.051Z,13.43
2022-09-15T22:11:41.178Z,13.23
2022-09-15T22:14:11.560Z,19.37
2022-09-15T22:16:39.137Z,8.23
2022-09-15T22:19:07.016Z,11.93
2022-09-15T22:21:36.681Z,11.90
2022-09-15T22:24:04.454Z,7.67
2022-09-15T22:26:31.963Z,7.80
2022-09-15T22:28:59.210Z,4.17
2022-09-15T22:31:26.852Z,23.13
2022-09-15T22:33:54.291Z,6.00
2022-09-15T22:36:26.448Z,5.90
2022-09-15T22:38:55.450Z,10.67
2022-09-15T22:41:22.167Z,8.10
2022-09-15T22:43:49.851Z,15.07
2022-09-15T22:46:17.519Z,12.30
2022-09-15T22:48:44.391Z,12.43
2022-09-15T22:51:12.162Z,11.13
2022-09-15T22:53:39.085Z,3.37
2022-09-15T22:56:07.047Z,16.97
2022-09-15T22:58:34.542Z,6.00
2022-09-15T23:01:05.239Z,19.70
2022-09-15T23:03:32.005Z,8.67
2022-09-15T23:05:59.244Z,16.17
2022-09-15T23:08:26.153Z,10.40
2022-09-15T23:10:52.725Z,16.27
2022-09-15T23:13:19.341Z,4.97
2022-09-15T23:15:48.635Z,8.03
2022-09-15T23:18:15.193Z,8.33
2022-09-15T23:20:42.504Z,7.47
2022-09-15T23:23:09.098Z,8.80
2022-09-15T23:25:36.778Z,5.03
2022-09-15T23:28:03.351Z,3.00
2022-09-15T23:30:29.921Z,11.80
2022-09-15T23:32:56.566Z,12.47
2022-09-15T23:35:23.170Z,9.70
2022-09-15T23:37:49.779Z,4.00
2022-09-15T23:40:16.469Z,6.70
2022-09-15T23:42:43.101Z,7.43
2022-09-15T23:45:09.831Z,11.83
2022-09-15T23:47:36.390Z,15.67
2022-09-15T23:50:03.016Z,18.80
2022-09-15T23:52:29.561Z,6.53
2022-09-15T23:54:56.123Z,10.07
2022-09-15T23:57:22.705Z,11.13
2022-09-15T23:59:49.288Z,11.63
